Time,TemperatureF,DewpointF,PressureIn,WindDirection,WindDirectionDegrees,WindSpeedMPH,WindSpeedGustMPH,Humidity,HourlyPrecipIn,Conditions,Clouds,dailyrainin,SoftwareType,DateUTC
2015-07-30 00:01:00,66.3,62.0,30.04,WSW,241,2.0,2.0,86,0.00,,,0.00,Wunderground v.1.15,2015-07-30 05:01:00,
2015-07-30 00:11:00,66.2,61.9,30.04,WSW,252,2.0,2.0,86,0.00,,,0.00,Wunderground v.1.15,2015-07-30 05:11:00,
2015-07-30 00:21:00,66.0,61.7,30.04,WSW,246,2.0,2.0,86,0.00,,,0.00,Wunderground v.1.15,2015-07-30 05:21:00,
2015-07-30 00:31:00,65.7,61.7,30.05,WSW,240,2.0,2.0,87,0.00,,,0.00,Wunderground v.1.15,2015-07-30 05:31:00,
2015-07-30 00:41:00,65.3,61.3,30.05,WSW,244,2.0,2.0,87,0.00,,,0.00,Wunderground v.1.15,2015-07-30 05:41:00,
2015-07-30 01:01:00,65.1,61.1,30.05,West,261,2.0,2.0,87,0.00,,,0.00,Wunderground v.1.15,2015-07-30 06:01:00,
2015-07-30 01:11:00,65.1,60.8,30.05,West,269,2.0,4.0,86,0.00,,,0.00,Wunderground v.1.15,2015-07-30 06:11:00,
2015-07-30 01:21:00,65.0,60.7,30.05,WSW,246,2.0,2.0,86,0.00,,,0.00,Wunderground v.1.15,2015-07-30 06:21:00,
2015-07-30 01:31:00,64.8,60.5,30.05,WSW,239,2.0,2.0,86,0.00,,,0.00,Wunderground v.1.15,2015-07-30 06:31:00,
2015-07-30 01:41:00,64.5,60.2,30.06,WSW,257,2.0,2.0,86,0.00,,,0.00,Wunderground v.1.15,2015-07-30 06:41:00,
2015-07-30 01:51:00,64.3,60.3,30.06,WSW,238,2.0,2.0,87,0.00,,,0.00,Wunderground v.1.15,2015-07-30 06:51:00,
2015-07-30 02:01:00,64.0,60.1,30.06,WSW,253,2.0,2.0,87,0.00,,,0.00,Wunderground v.1.15,2015-07-30 07:01:00,
2015-07-30 02:11:00,63.8,60.2,30.06,WSW,249,2.0,2.0,88,0.00,,,0.00,Wunderground v.1.15,2015-07-30 07:11:00,
2015-07-30 02:21:00,63.6,60.0,30.06,WSW,249,1.0,1.0,88,0.00,,,0.00,Wunderground v.1.15,2015-07-30 07:21:00,
2015-07-30 02:31:00,63.5,59.9,30.06,SW,225,2.0,2.0,88,0.00,,,0.00,Wunderground v.1.15,2015-07-30 07:31:00,
2015-07-30 02:41:00,63.3,59.7,30.05,WSW,238,2.0,2.0,88,0.00,,,0.00,Wunderground v.1.15,2015-07-30 07:41:00,
2015-07-30 02:51:00,63.2,59.6,30.05,WSW,238,2.0,2.0,88,0.00,,,0.00,Wunderground v.1.15,2015-07-30 07:51:00,
2015-07-30 03:01:00,63.1,59.8,30.06,WSW,244,2.0,2.0,89,0.00,,,0.00,Wunderground v.1.15,2015-07-30 08:01:00,
2015-07-30 03:11:00,63.0,59.7,30.06,West,265,2.0,2.0,89,0.00,,,0.00,Wunderground v.1.15,2015-07-30 08:11:00,
2015-07-30 03:21:00,62.8,59.2,30.06,SW,236,2.0,2.0,88,0.00,,,0.00,Wunderground v.1.15,2015-07-30 08:21:00,
2015-07-30 03:31:00,62.7,59.4,30.06,WSW,247,1.0,3.0,89,0.00,,,0.00,Wunderground v.1.15,2015-07-30 08:31:00,
2015-07-30 03:51:00,62.8,59.2,30.06,SW,231,2.0,2.0,88,0.00,,,0.00,Wunderground v.1.15,2015-07-30 08:51:00,
2015-07-30 04:01:00,62.8,59.2,30.06,WSW,237,3.0,3.0,88,0.00,,,0.00,Wunderground v.1.15,2015-07-30 09:01:00,
2015-07-30 04:11:00,62.6,59.3,30.06,WSW,238,2.0,2.0,89,0.00,,,0.00,Wunderground v.1.15,2015-07-30 09:11:00,
2015-07-30 04:21:00,62.4,59.1,30.06,WSW,258,1.0,1.0,89,0.00,,,0.00,Wunderground v.1.15,2015-07-30 09:21:00,
2015-07-30 04:31:00,62.4,59.1,30.06,WSW,247,2.0,2.0,89,0.00,,,0.00,Wunderground v.1.15,2015-07-30 09:31:00,
2015-07-30 04:41:00,62.5,59.2,30.06,WSW,245,2.0,2.0,89,0.00,,,0.00,Wunderground v.1.15,2015-07-30 09:41:00,
2015-07-30 04:51:00,62.4,59.1,30.06,West,269,2.0,2.0,89,0.00,,,0.00,Wunderground v.1.15,2015-07-30 09:51:00,
2015-07-30 05:01:00,62.3,59.0,30.06,West,265,2.0,3.0,89,0.00,,,0.00,Wunderground v.1.15,2015-07-30 10:01:00,
2015-07-30 05:11:00,62.4,59.1,30.06,WNW,292,3.0,4.0,89,0.00,,,0.00,Wunderground v.1.15,2015-07-30 10:11:00,
2015-07-30 05:21:00,62.8,59.5,30.06,WSW,242,3.0,5.0,89,0.00,,,0.00,Wunderground v.1.15,2015-07-30 10:21:00,
2015-07-30 05:31:00,63.1,59.5,30.06,WSW,255,3.0,3.0,88,0.00,,,0.00,Wunderground v.1.15,2015-07-30 10:31:00,
2015-07-30 05:41:00,63.2,59.3,30.06,West,262,2.0,2.0,87,0.00,,,0.00,Wunderground v.1.15,2015-07-30 10:41:00,
2015-07-30 05:51:00,63.3,59.4,30.06,West,267,2.0,2.0,87,0.00,,,0.00,Wunderground v.1.15,2015-07-30 10:51:00,
2015-07-30 06:01:00,63.1,59.2,30.06,West,263,2.0,2.0,87,0.00,,,0.00,Wunderground v.1.15,2015-07-30 11:01:00,
2015-07-30 06:11:00,63.0,59.4,30.06,West,266,2.0,2.0,88,0.00,,,0.00,Wunderground v.1.15,2015-07-30 11:11:00,
2015-07-30 06:21:00,62.8,59.2,30.06,West,271,2.0,2.0,88,0.00,,,0.00,Wunderground v.1.15,2015-07-30 11:21:00,
2015-07-30 06:31:00,62.5,58.9,30.06,West,267,1.0,1.0,88,0.00,,,0.00,Wunderground v.1.15,2015-07-30 11:31:00,
2015-07-30 06:41:00,62.1,58.8,30.06,West,267,1.0,2.0,89,0.00,,,0.00,Wunderground v.1.15,2015-07-30 11:41:00,
2015-07-30 06:51:00,62.0,59.0,30.06,West,270,2.0,2.0,90,0.00,,,0.00,Wunderground v.1.15,2015-07-30 11:51:00,
2015-07-30 07:01:00,62.0,59.0,30.06,WSW,250,1.0,1.0,90,0.00,,,0.00,Wunderground v.1.15,2015-07-30 12:01:00,
2015-07-30 07:11:00,62.3,59.3,30.06,WSW,257,2.0,2.0,90,0.00,,,0.00,Wunderground v.1.15,2015-07-30 12:11:00,
2015-07-30 07:21:00,62.6,59.6,30.06,West,267,2.0,2.0,90,0.00,,,0.00,Wunderground v.1.15,2015-07-30 12:21:00,
2015-07-30 07:31:00,63.0,59.7,30.06,West,259,2.0,2.0,89,0.00,,,0.00,Wunderground v.1.15,2015-07-30 12:31:00,
2015-07-30 07:41:00,63.4,60.1,30.06,WSW,246,2.0,2.0,89,0.00,,,0.00,Wunderground v.1.15,2015-07-30 12:41:00,
2015-07-30 07:51:00,64.2,60.6,30.06,SW,225,2.0,3.0,88,0.00,,,0.00,Wunderground v.1.15,2015-07-30 12:51:00,
2015-07-30 08:11:00,65.9,61.9,30.06,West,261,3.0,3.0,87,0.00,,,0.00,Wunderground v.1.15,2015-07-30 13:11:00,
2015-07-30 08:21:00,67.0,62.0,30.07,NW,304,5.0,5.0,84,0.00,,,0.00,Wunderground v.1.15,2015-07-30 13:21:00,
2015-07-30 08:31:00,67.8,62.4,30.07,WSW,254,4.0,4.0,83,0.00,,,0.00,Wunderground v.1.15,2015-07-30 13:31:00,
2015-07-30 08:41:00,69.0,63.3,30.07,SW,231,3.0,5.0,82,0.00,,,0.00,Wunderground v.1.15,2015-07-30 13:41:00,
2015-07-30 08:51:00,69.8,63.7,30.08,WSW,243,5.0,6.0,81,0.00,,,0.00,Wunderground v.1.15,2015-07-30 13:51:00,
2015-07-30 09:01:00,70.2,63.7,30.08,NW,309,5.0,5.0,80,0.00,,,0.00,Wunderground v.1.15,2015-07-30 14:01:00,
2015-07-30 09:11:00,70.9,64.1,30.08,West,261,4.0,6.0,79,0.00,,,0.00,Wunderground v.1.15,2015-07-30 14:11:00,
2015-07-30 09:21:00,72.0,65.1,30.07,SW,230,3.0,4.0,79,0.00,,,0.00,Wunderground v.1.15,2015-07-30 14:21:00,
2015-07-30 09:31:00,72.6,64.6,30.07,SW,234,4.0,4.0,76,0.00,,,0.00,Wunderground v.1.15,2015-07-30 14:31:00,
2015-07-30 09:41:00,73.2,65.2,30.07,SW,227,4.0,4.0,76,0.00,,,0.00,Wunderground v.1.15,2015-07-30 14:41:00,
2015-07-30 09:51:00,74.2,65.0,30.07,SSW,203,4.0,4.0,73,0.00,,,0.00,Wunderground v.1.15,2015-07-30 14:51:00,
2015-07-30 10:01:00,74.9,65.7,30.07,WSW,238,4.0,4.0,73,0.00,,,0.00,Wunderground v.1.15,2015-07-30 15:01:00,
2015-07-30 10:11:00,75.3,66.0,30.07,West,268,5.0,5.0,73,0.00,,,0.00,Wunderground v.1.15,2015-07-30 15:11:00,
2015-07-30 10:21:00,75.8,65.7,30.08,SW,234,6.0,6.0,71,0.00,,,0.00,Wunderground v.1.15,2015-07-30 15:21:00,
2015-07-30 10:31:00,76.4,66.3,30.08,WSW,240,5.0,5.0,71,0.00,,,0.00,Wunderground v.1.15,2015-07-30 15:31:00,
2015-07-30 10:41:00,77.1,65.7,30.07,West,267,5.0,6.0,68,0.00,,,0.00,Wunderground v.1.15,2015-07-30 15:41:00,
2015-07-30 10:51:00,77.5,65.7,30.07,WSW,244,5.0,5.0,67,0.00,,,0.00,Wunderground v.1.15,2015-07-30 15:51:00,
2015-07-30 11:01:00,78.0,66.6,30.08,WSW,239,6.0,6.0,68,0.00,,,0.00,Wunderground v.1.15,2015-07-30 16:01:00,
2015-07-30 11:11:00,78.2,65.5,30.08,WNW,298,6.0,6.0,65,0.00,,,0.00,Wunderground v.1.15,2015-07-30 16:11:00,
2015-07-30 11:21:00,78.6,66.3,30.08,WSW,244,7.0,7.0,66,0.00,,,0.00,Wunderground v.1.15,2015-07-30 16:21:00,
2015-07-30 11:31:00,79.7,66.4,30.08,SSW,211,5.0,6.0,64,0.00,,,0.00,Wunderground v.1.15,2015-07-30 16:31:00,
2015-07-30 11:51:00,81.1,65.4,30.08,SW,223,6.0,6.0,59,0.00,,,0.00,Wunderground v.1.15,2015-07-30 16:51:00,
2015-07-30 12:01:00,81.6,64.9,30.08,WSW,252,6.0,10.0,57,0.00,,,0.00,Wunderground v.1.15,2015-07-30 17:01:00,
2015-07-30 12:11:00,82.4,65.6,30.08,WSW,240,6.0,6.0,57,0.00,,,0.00,Wunderground v.1.15,2015-07-30 17:11:00,
2015-07-30 12:21:00,82.7,65.9,30.08,SW,224,6.0,6.0,57,0.00,,,0.00,Wunderground v.1.15,2015-07-30 17:21:00,
2015-07-30 12:31:00,82.9,66.6,30.07,SW,232,6.0,6.0,58,0.00,,,0.00,Wunderground v.1.15,2015-07-30 17:31:00,
2015-07-30 12:41:00,83.0,65.7,30.07,WSW,245,6.0,8.0,56,0.00,,,0.00,Wunderground v.1.15,2015-07-30 17:41:00,
2015-07-30 12:51:00,83.1,65.8,30.08,WNW,283,6.0,6.0,56,0.00,,,0.00,Wunderground v.1.15,2015-07-30 17:51:00,
2015-07-30 13:01:00,83.5,68.2,30.07,WNW,294,5.0,8.0,60,0.00,,,0.00,Wunderground v.1.15,2015-07-30 18:01:00,
2015-07-30 13:11:00,83.6,68.2,30.07,NW,316,6.0,6.0,60,0.00,,,0.00,Wunderground v.1.15,2015-07-30 18:11:00,
2015-07-30 13:21:00,84.1,67.2,30.07,West,260,3.0,3.0,57,0.00,,,0.00,Wunderground v.1.15,2015-07-30 18:21:00,
2015-07-30 13:31:00,84.7,66.7,30.07,WSW,257,5.0,5.0,55,0.00,,,0.00,Wunderground v.1.15,2015-07-30 18:31:00,
2015-07-30 13:41:00,84.8,67.4,30.07,NW,311,5.0,5.0,56,0.00,,,0.00,Wunderground v.1.15,2015-07-30 18:41:00,
2015-07-30 13:51:00,85.2,68.2,30.07,West,261,4.0,6.0,57,0.00,,,0.00,Wunderground v.1.15,2015-07-30 18:51:00,
2015-07-30 14:01:00,85.6,67.6,30.07,West,279,4.0,6.0,55,0.00,,,0.00,Wunderground v.1.15,2015-07-30 19:01:00,